メインページ
METAR-TAF:

METAR-TAF

空港 :

中部国際空港

名古屋, 日本

緯度: 34-51-30N, 経度: 136-48-19E, 海抜: 5m

現時点の気象観測

当レポートは33分前の11:30(UTC)に作成
南/南東の風 4kt
気温 17°C
湿度 72%
気圧 1021 hPa
視程10km以上
高度2500ftの雲はほとんどない
千切れ雲あり

METAR: RJGG 201130Z 15004KT 9999 FEW025 BKN/// 17/12 Q1021 NOSIG

時間: 21:03 (12:03 UTC)

予報

当レポートは58分前の11:05(UTC)に作成
予報は20日の 12時(UTC)から 21日の 18時(UTC)まで有効
南東の風 5kt
視程10km以上
高度2000ftの雲はほとんどない
20日の 15時(UTC)から 20日の 17時(UTC)まで徐々に
北東の風 5kt
21日の 00時(UTC)から 21日の 03時(UTC)まで徐々に
南/南西の風 6kt
21日の 15時(UTC)から 21日の 18時(UTC)まで徐々に
北東の風 6kt

TAF: RJGG 201105Z 2012/2118 14005KT 9999 FEW020 BECMG 2015/2017 04005KT BECMG 2100/2103 20006KT BECMG 2115/2118 04006KT

4,000以上の空港の気象観測と天気予報(METAR報とTAF報)

利用可能な観測所は地図上に黄色い丸と赤い丸で示す。

丸の上にカーソルを重ねると観測所名を参照できる。

次にクリックすると気象観測と天気予報を参照できる。

マップの切り替え:黒色「×」印の緑ボタンをクリックして拡大、「-」印の緑ボタンをクリックして縮小、緑色の三角印をクリックして隣りの地図に切り替え


METAR-TAF: